createdAt,value
2022-11-24T00:00:27.297Z,7.77
2022-11-24T00:02:57.325Z,7.40
2022-11-24T00:05:27.270Z,7.43
2022-11-24T00:07:57.174Z,6.93
2022-11-24T00:10:27.071Z,7.10
2022-11-24T00:12:56.986Z,7.50
2022-11-24T00:15:29.482Z,7.83
2022-11-24T00:17:59.690Z,7.30
2022-11-24T00:20:29.643Z,7.00
2022-11-24T00:22:59.694Z,6.67
2022-11-24T00:25:29.647Z,7.30
2022-11-24T00:27:59.549Z,7.23
2022-11-24T00:30:32.134Z,7.40
2022-11-24T00:33:02.106Z,7.23
2022-11-24T00:35:32.024Z,8.10
2022-11-24T00:38:01.960Z,8.00
2022-11-24T00:40:34.991Z,7.43
2022-11-24T00:43:05.199Z,7.33
2022-11-24T00:45:37.734Z,6.93
2022-11-24T00:48:08.055Z,7.67
2022-11-24T00:50:38.543Z,8.43
2022-11-24T00:53:08.513Z,7.57
2022-11-24T00:55:38.586Z,6.80
2022-11-24T00:58:08.504Z,6.83
2022-11-24T01:00:41.156Z,7.03
2022-11-24T01:03:11.080Z,6.53
2022-11-24T01:05:41.217Z,7.53
2022-11-24T01:08:11.605Z,8.03
2022-11-24T01:10:41.632Z,7.60
2022-11-24T01:13:12.356Z,7.60
2022-11-24T01:15:45.276Z,7.00
2022-11-24T01:18:15.354Z,6.60
2022-11-24T01:20:45.272Z,8.00
2022-11-24T01:23:15.195Z,7.13
2022-11-24T01:25:45.082Z,7.40
2022-11-24T01:28:15.044Z,7.83
2022-11-24T01:30:48.182Z,7.27
2022-11-24T01:33:18.155Z,7.40
2022-11-24T01:35:48.091Z,8.17
2022-11-24T01:38:18.072Z,6.50
2022-11-24T01:40:48.349Z,6.70
2022-11-24T01:43:21.180Z,6.20
2022-11-24T01:45:53.905Z,6.83
2022-11-24T01:48:27.944Z,6.30
2022-11-24T01:51:06.061Z,6.27
2022-11-24T01:53:36.060Z,6.17
2022-11-24T01:56:07.259Z,6.27
2022-11-24T01:58:39.428Z,5.97
2022-11-24T02:01:12.646Z,5.60
2022-11-24T02:03:44.983Z,5.17
2022-11-24T02:06:16.459Z,5.57
2022-11-24T02:08:52.802Z,5.17
2022-11-24T02:11:24.359Z,5.10
2022-11-24T02:13:57.192Z,4.97
2022-11-24T02:16:29.913Z,4.80
2022-11-24T02:19:00.007Z,4.63
2022-11-24T02:21:29.997Z,4.63
2022-11-24T02:24:06.807Z,4.47
2022-11-24T02:26:46.980Z,4.47
2022-11-24T02:29:18.075Z,4.90
2022-11-24T02:31:52.103Z,5.07
2022-11-24T02:34:22.113Z,4.87
2022-11-24T02:36:52.114Z,4.70
2022-11-24T02:39:22.456Z,4.57
2022-11-24T02:41:59.888Z,4.63
2022-11-24T02:44:34.128Z,4.37
2022-11-24T02:47:09.190Z,4.70
2022-11-24T02:49:39.408Z,4.40
2022-11-24T02:52:10.188Z,4.13
2022-11-24T02:54:40.086Z,4.17
2022-11-24T02:57:13.553Z,3.93
2022-11-24T02:59:43.439Z,4.27
2022-11-24T03:02:13.564Z,3.93
2022-11-24T03:04:44.794Z,4.07
2022-11-24T03:07:14.926Z,4.17
2022-11-24T03:09:44.863Z,3.40
2022-11-24T03:12:17.366Z,4.13
2022-11-24T03:14:47.334Z,3.80
2022-11-24T03:17:17.262Z,3.70
2022-11-24T03:19:47.152Z,4.07
2022-11-24T03:22:17.620Z,3.50
2022-11-24T03:24:47.537Z,3.73
2022-11-24T03:27:20.062Z,3.43
2022-11-24T03:29:50.070Z,3.80
2022-11-24T03:32:19.976Z,4.00
2022-11-24T03:34:49.843Z,3.20
2022-11-24T03:37:19.961Z,4.10
2022-11-24T03:39:49.927Z,3.57
2022-11-24T03:42:22.444Z,4.20
2022-11-24T03:44:52.378Z,3.53
2022-11-24T03:47:22.260Z,3.60
2022-11-24T03:49:52.150Z,4.07
2022-11-24T03:52:22.075Z,3.30
2022-11-24T03:54:52.085Z,3.70
2022-11-24T03:57:24.710Z,3.70
2022-11-24T03:59:54.637Z,3.00
2022-11-24T04:02:24.624Z,3.60
2022-11-24T04:04:54.535Z,2.67
2022-11-24T04:07:24.425Z,3.47
2022-11-24T04:09:54.331Z,3.23
2022-11-24T04:12:39.422Z,3.80
2022-11-24T04:15:10.053Z,3.23
2022-11-24T04:17:39.840Z,3.80
2022-11-24T04:20:11.481Z,3.10
2022-11-24T04:22:41.343Z,3.60
2022-11-24T04:25:12.608Z,4.13
2022-11-24T04:27:44.971Z,3.30
2022-11-24T04:30:15.206Z,4.47
2022-11-24T04:32:44.967Z,3.50
2022-11-24T04:35:14.972Z,3.53
2022-11-24T04:37:44.978Z,3.33
2022-11-24T04:40:15.945Z,3.33
2022-11-24T04:42:55.465Z,3.17
2022-11-24T04:45:25.639Z,3.13
2022-11-24T04:47:56.002Z,2.67
2022-11-24T04:50:25.834Z,2.90
2022-11-24T04:52:55.619Z,3.13
2022-11-24T04:55:25.426Z,2.93
2022-11-24T04:57:57.811Z,3.20
2022-11-24T05:00:27.568Z,2.90
2022-11-24T05:02:57.332Z,2.73
2022-11-24T05:05:27.123Z,2.70
2022-11-24T05:07:58.052Z,2.83
2022-11-24T05:10:40.288Z,3.30
2022-11-24T05:13:14.152Z,3.07
2022-11-24T05:15:45.086Z,3.00
2022-11-24T05:18:17.071Z,2.90
2022-11-24T05:20:47.505Z,2.80
2022-11-24T05:23:17.615Z,3.20
2022-11-24T05:25:47.955Z,2.40
2022-11-24T05:28:21.221Z,3.10
2022-11-24T05:30:51.115Z,3.27
2022-11-24T05:33:23.195Z,3.23
2022-11-24T05:35:53.379Z,2.50
2022-11-24T05:38:23.849Z,2.60
2022-11-24T05:40:53.645Z,3.03
2022-11-24T05:43:26.039Z,2.87
2022-11-24T05:45:55.784Z,2.73
2022-11-24T05:48:25.666Z,3.03
2022-11-24T05:50:57.547Z,2.87
2022-11-24T05:53:27.842Z,2.70
2022-11-24T05:55:58.290Z,3.03
2022-11-24T05:58:31.584Z,2.73
2022-11-24T06:01:01.442Z,2.70
2022-11-24T06:03:31.285Z,2.80
2022-11-24T06:06:01.334Z,3.00
2022-11-24T06:08:31.629Z,2.90
2022-11-24T06:11:17.431Z,2.80
2022-11-24T06:13:51.413Z,2.63
2022-11-24T06:16:21.531Z,2.63
2022-11-24T06:18:51.329Z,3.00
2022-11-24T06:21:21.077Z,2.77
2022-11-24T06:23:50.955Z,3.10
2022-11-24T06:26:20.791Z,2.97
2022-11-24T06:28:53.294Z,3.47
2022-11-24T06:31:24.325Z,3.30
2022-11-24T06:33:54.573Z,3.03
2022-11-24T06:36:24.343Z,2.93
2022-11-24T06:38:54.287Z,3.10
2022-11-24T06:41:24.004Z,2.87
2022-11-24T06:43:56.577Z,3.33
2022-11-24T06:46:26.836Z,2.80
2022-11-24T06:48:56.755Z,2.97
2022-11-24T06:51:26.571Z,2.67
2022-11-24T06:53:56.527Z,2.77
2022-11-24T06:56:26.324Z,2.63
2022-11-24T06:58:58.634Z,3.37
2022-11-24T07:01:30.399Z,2.77
2022-11-24T07:04:01.423Z,2.60
2022-11-24T07:06:31.235Z,2.90
2022-11-24T07:09:00.987Z,2.83
2022-11-24T07:11:30.955Z,3.13
2022-11-24T07:14:03.375Z,2.70
2022-11-24T07:16:34.275Z,2.90
2022-11-24T07:19:04.602Z,2.93
2022-11-24T07:21:34.373Z,2.87
2022-11-24T07:24:04.100Z,3.00
2022-11-24T07:26:37.444Z,2.60
2022-11-24T07:29:09.967Z,2.53
2022-11-24T07:31:39.767Z,2.67
2022-11-24T07:34:09.480Z,2.53
2022-11-24T07:36:39.543Z,2.97
2022-11-24T07:39:09.703Z,2.70
2022-11-24T07:41:39.508Z,2.53
2022-11-24T07:44:11.839Z,2.77
2022-11-24T07:46:41.597Z,2.80
2022-11-24T07:49:11.334Z,2.50
2022-11-24T07:51:41.042Z,3.07
2022-11-24T07:54:10.906Z,9.30
2022-11-24T07:56:40.725Z,2.43
2022-11-24T07:59:13.061Z,2.50
2022-11-24T08:01:42.880Z,2.90
2022-11-24T08:04:12.642Z,2.90
2022-11-24T08:06:47.147Z,2.67
2022-11-24T08:09:17.295Z,2.63
2022-11-24T08:11:47.038Z,3.03
2022-11-24T08:14:19.384Z,3.33
2022-11-24T08:16:49.175Z,3.77
2022-11-24T08:19:18.936Z,2.93
2022-11-24T08:21:48.676Z,3.20
2022-11-24T08:24:18.455Z,3.07
2022-11-24T08:26:48.150Z,3.33
2022-11-24T08:29:20.780Z,3.30
2022-11-24T08:31:50.590Z,4.30
2022-11-24T08:34:20.307Z,3.63
2022-11-24T08:36:50.003Z,3.53
2022-11-24T08:39:20.788Z,3.50
2022-11-24T08:41:50.672Z,3.60
2022-11-24T08:44:23.041Z,2.83
2022-11-24T08:46:53.509Z,3.20
2022-11-24T08:49:23.207Z,3.30
2022-11-24T08:51:52.933Z,3.50
2022-11-24T08:54:22.842Z,3.80
2022-11-24T08:56:52.597Z,3.57
2022-11-24T08:59:24.957Z,2.80
2022-11-24T09:01:54.794Z,3.87
2022-11-24T09:04:24.658Z,3.40
2022-11-24T09:06:54.395Z,3.07
2022-11-24T09:09:26.980Z,3.40
2022-11-24T09:11:56.740Z,3.27
2022-11-24T09:14:29.172Z,3.77
2022-11-24T09:16:59.015Z,2.97
2022-11-24T09:19:28.775Z,3.63
2022-11-24T09:21:58.527Z,3.53
2022-11-24T09:24:28.561Z,3.23
2022-11-24T09:26:58.371Z,3.20
2022-11-24T09:29:30.719Z,3.13
2022-11-24T09:32:06.341Z,3.37
2022-11-24T09:34:36.609Z,3.33
2022-11-24T09:37:06.344Z,3.60
2022-11-24T09:39:36.359Z,3.83
2022-11-24T09:42:16.592Z,3.33
2022-11-24T09:45:04.924Z,3.30
2022-11-24T09:47:46.084Z,2.80
2022-11-24T09:50:19.499Z,7.73
2022-11-24T09:52:53.095Z,3.10
2022-11-24T09:55:35.009Z,3.10
2022-11-24T09:58:33.341Z,2.70
2022-11-24T10:01:10.693Z,2.83
2022-11-24T10:03:44.753Z,2.97
2022-11-24T10:06:25.409Z,5.03
2022-11-24T10:09:14.137Z,2.80
2022-11-24T10:11:51.647Z,3.03
2022-11-24T10:14:43.947Z,2.80
2022-11-24T10:17:29.488Z,2.47
2022-11-24T10:20:06.573Z,2.57
2022-11-24T10:22:48.295Z,2.70
2022-11-24T10:25:28.016Z,2.50
2022-11-24T10:28:00.713Z,2.47
2022-11-24T10:30:30.968Z,2.37
2022-11-24T10:33:06.717Z,2.20
2022-11-24T10:35:45.553Z,2.10
2022-11-24T10:38:26.815Z,2.50
2022-11-24T10:41:01.727Z,2.30
2022-11-24T10:43:32.057Z,2.20
2022-11-24T10:46:08.301Z,2.10
2022-11-24T10:48:46.212Z,2.83
2022-11-24T10:51:36.514Z,2.27
2022-11-24T10:54:13.634Z,2.13
2022-11-24T10:56:44.230Z,2.27
2022-11-24T10:59:37.769Z,2.50
2022-11-24T11:02:36.090Z,2.23
2022-11-24T11:05:44.687Z,2.37
2022-11-24T11:08:29.027Z,2.20
2022-11-24T11:11:25.354Z,2.30
2022-11-24T11:14:03.099Z,1.93
2022-11-24T11:16:38.188Z,2.33
2022-11-24T11:22:24.873Z,2.63
2022-11-24T11:25:10.138Z,2.37
2022-11-24T11:27:41.190Z,2.50
2022-11-24T11:36:16.619Z,2.73
2022-11-24T11:38:48.178Z,2.60
2022-11-24T11:41:24.447Z,2.73
2022-11-24T11:44:04.704Z,2.70
2022-11-24T11:46:35.846Z,2.53
2022-11-24T11:49:06.288Z,2.13
2022-11-24T11:51:47.616Z,2.57
2022-11-24T11:54:29.888Z,2.63
2022-11-24T11:57:10.518Z,2.23
2022-11-24T11:59:56.439Z,2.37
2022-11-24T12:02:53.624Z,1.60
2022-11-24T12:05:33.103Z,2.40
2022-11-24T12:08:20.722Z,2.47
2022-11-24T12:10:56.566Z,2.60
2022-11-24T12:13:55.667Z,2.30
2022-11-24T12:16:35.673Z,2.17
2022-11-24T12:19:19.213Z,2.17
2022-11-24T12:22:01.380Z,2.50
2022-11-24T12:24:39.583Z,2.33
2022-11-24T12:27:22.440Z,2.60
2022-11-24T12:30:10.755Z,1.97
2022-11-24T12:33:12.691Z,2.40
2022-11-24T12:35:46.150Z,2.20
2022-11-24T12:38:31.058Z,2.37
2022-11-24T12:41:41.165Z,1.83
2022-11-24T12:44:20.444Z,2.10
2022-11-24T12:47:02.364Z,2.10
2022-11-24T12:49:38.819Z,2.20
2022-11-24T12:52:15.654Z,1.97
2022-11-24T12:54:45.334Z,2.47
2022-11-24T12:57:21.612Z,2.20
2022-11-24T13:00:00.366Z,1.50
2022-11-24T13:02:44.739Z,2.50
2022-11-24T13:05:25.034Z,1.80
2022-11-24T13:07:59.876Z,2.10
2022-11-24T13:13:25.138Z,2.10
2022-11-24T13:16:35.861Z,1.80
2022-11-24T13:19:17.944Z,2.67
2022-11-24T13:22:07.420Z,2.17
2022-11-24T13:24:38.590Z,2.23
2022-11-24T13:27:44.451Z,2.47
2022-11-24T13:30:53.878Z,2.23
2022-11-24T13:33:47.501Z,3.00
2022-11-24T13:36:35.780Z,1.90
2022-11-24T13:39:07.964Z,2.37
2022-11-24T13:42:43.922Z,2.10
2022-11-24T13:45:03.331Z,1.83
2022-11-24T13:47:45.309Z,2.40
2022-11-24T13:50:42.786Z,2.30
2022-11-24T13:53:20.800Z,2.35
2022-11-24T13:56:00.184Z,2.43
2022-11-24T13:58:34.752Z,2.33
2022-11-24T14:01:16.541Z,2.40
2022-11-24T14:07:06.952Z,2.20
2022-11-24T14:09:46.150Z,2.30
2022-11-24T14:12:17.717Z,2.23
2022-11-24T14:14:48.872Z,2.33
2022-11-24T14:17:22.420Z,2.33
2022-11-24T14:19:54.207Z,2.08
2022-11-24T14:22:27.003Z,2.13
2022-11-24T14:25:01.447Z,1.90
2022-11-24T14:27:34.581Z,2.27
2022-11-24T14:30:06.546Z,1.80
2022-11-24T14:32:37.822Z,2.15
2022-11-24T14:35:25.447Z,1.63
2022-11-24T14:37:55.387Z,2.30
2022-11-24T14:40:44.577Z,1.90
2022-11-24T14:43:23.644Z,2.57
2022-11-24T14:45:56.232Z,2.07
2022-11-24T14:48:29.577Z,2.10
2022-11-24T14:51:10.267Z,2.30
2022-11-24T14:53:44.775Z,2.97
2022-11-24T14:56:26.776Z,2.40
2022-11-24T14:59:00.589Z,2.07
2022-11-24T15:01:36.219Z,2.47
2022-11-24T15:07:22.237Z,2.20
2022-11-24T15:09:55.393Z,2.40
2022-11-24T15:12:34.416Z,2.23
2022-11-24T15:15:06.505Z,2.40
2022-11-24T15:17:37.050Z,2.40
2022-11-24T15:20:12.756Z,2.00
2022-11-24T15:22:44.598Z,2.90
2022-11-24T15:25:37.923Z,2.80
2022-11-24T15:28:12.132Z,2.60
2022-11-24T15:30:41.976Z,2.67
2022-11-24T15:33:18.306Z,2.43
2022-11-24T15:35:48.849Z,2.57
2022-11-24T15:38:18.993Z,3.17
2022-11-24T15:40:50.144Z,2.60
2022-11-24T15:43:33.402Z,2.30
2022-11-24T15:46:04.500Z,2.50
2022-11-24T15:48:34.555Z,2.20
2022-11-24T15:51:06.498Z,4.00
2022-11-24T15:53:38.947Z,2.40
2022-11-24T15:56:11.480Z,2.60
2022-11-24T15:58:43.770Z,2.50
2022-11-24T16:01:13.577Z,3.17
2022-11-24T16:03:48.376Z,2.40
2022-11-24T16:06:24.975Z,2.87
2022-11-24T16:08:55.662Z,2.50
2022-11-24T16:11:25.887Z,2.10
2022-11-24T16:13:58.315Z,2.60
2022-11-24T16:16:28.087Z,2.57
2022-11-24T16:18:57.772Z,2.63
2022-11-24T16:21:27.470Z,2.50
2022-11-24T16:23:57.820Z,2.97
2022-11-24T16:26:27.580Z,2.53
2022-11-24T16:28:59.902Z,3.13
2022-11-24T16:31:29.718Z,2.30
2022-11-24T16:33:59.550Z,2.80
2022-11-24T16:36:29.239Z,2.40
2022-11-24T16:38:59.048Z,2.80
2022-11-24T16:41:28.775Z,2.43
2022-11-24T16:44:01.304Z,2.63
2022-11-24T16:46:31.362Z,3.03
2022-11-24T16:49:03.743Z,2.27
2022-11-24T16:51:35.187Z,2.70
2022-11-24T16:54:05.723Z,3.50
2022-11-24T16:56:35.440Z,2.93
2022-11-24T16:59:08.216Z,2.70
2022-11-24T17:01:40.271Z,2.60
2022-11-24T17:04:12.776Z,2.83
2022-11-24T17:06:42.944Z,2.83
2022-11-24T17:09:12.934Z,2.60
2022-11-24T17:11:42.625Z,2.63
2022-11-24T17:14:15.728Z,3.30
2022-11-24T17:16:45.484Z,3.10
2022-11-24T17:19:15.412Z,3.50
2022-11-24T17:21:45.153Z,3.23
2022-11-24T17:24:17.744Z,3.43
2022-11-24T17:26:49.283Z,3.50
2022-11-24T17:29:21.973Z,2.97
2022-11-24T17:31:51.711Z,3.63
2022-11-24T17:34:21.790Z,3.87
2022-11-24T17:36:51.542Z,3.10
2022-11-24T17:39:24.753Z,3.40
2022-11-24T17:41:54.674Z,2.90
2022-11-24T17:44:27.130Z,3.57
2022-11-24T17:46:58.975Z,4.10
2022-11-24T17:49:28.678Z,3.37
2022-11-24T17:51:58.384Z,3.13
2022-11-24T17:57:17.752Z,3.57
2022-11-24T17:59:51.222Z,3.50
2022-11-24T18:02:20.969Z,3.90
2022-11-24T18:04:50.716Z,4.20
2022-11-24T18:07:20.453Z,3.50
2022-11-24T18:09:50.195Z,3.67
2022-11-24T18:12:20.132Z,3.50
2022-11-24T18:14:52.452Z,3.77
2022-11-24T18:17:22.176Z,3.50
2022-11-24T18:19:51.873Z,3.80
2022-11-24T18:22:43.049Z,3.57
2022-11-24T18:25:12.280Z,4.10
2022-11-24T18:27:42.111Z,4.00
2022-11-24T18:30:15.382Z,3.93
2022-11-24T18:32:45.104Z,3.83
2022-11-24T18:35:14.800Z,3.80
2022-11-24T18:37:44.706Z,4.33
2022-11-24T18:40:14.869Z,4.77
2022-11-24T18:42:44.605Z,5.40
2022-11-24T18:45:17.235Z,5.20
2022-11-24T18:47:46.940Z,5.30
2022-11-24T18:50:17.361Z,5.47
2022-11-24T18:52:47.073Z,6.80
2022-11-24T18:55:17.051Z,7.50
2022-11-24T18:57:46.765Z,5.70
2022-11-24T19:00:21.900Z,5.17
2022-11-24T19:02:53.368Z,4.27
2022-11-24T19:05:23.149Z,3.30
2022-11-24T19:07:52.924Z,3.90
2022-11-24T19:10:22.695Z,4.23
2022-11-24T19:12:52.404Z,3.30
2022-11-24T19:15:24.727Z,3.47
2022-11-24T19:17:54.408Z,3.43
2022-11-24T19:20:24.167Z,4.10
2022-11-24T19:22:53.862Z,3.30
2022-11-24T19:25:23.674Z,8.53
2022-11-24T19:27:53.431Z,3.47
2022-11-24T19:30:25.815Z,3.63
2022-11-24T19:32:55.784Z,3.50
2022-11-24T19:35:25.501Z,3.33
2022-11-24T19:37:55.875Z,2.90
2022-11-24T19:40:25.626Z,3.83
2022-11-24T19:42:55.380Z,3.53
2022-11-24T19:45:28.777Z,3.33
2022-11-24T19:47:58.536Z,3.20
2022-11-24T19:50:28.252Z,3.60
2022-11-24T19:52:57.961Z,3.50
2022-11-24T19:55:27.752Z,3.20
2022-11-24T19:57:57.463Z,3.07
2022-11-24T20:00:32.064Z,3.87
2022-11-24T20:03:02.328Z,8.27
2022-11-24T20:05:32.079Z,3.07
2022-11-24T20:08:01.756Z,3.40
2022-11-24T20:10:31.499Z,3.30
2022-11-24T20:13:01.200Z,3.40
2022-11-24T20:15:33.568Z,3.27
2022-11-24T20:18:03.307Z,3.10
2022-11-24T20:20:33.051Z,3.73
2022-11-24T20:23:02.752Z,3.23
2022-11-24T20:25:33.259Z,3.37
2022-11-24T20:28:03.014Z,2.83
2022-11-24T20:30:35.702Z,3.03
2022-11-24T20:33:05.906Z,3.13
2022-11-24T20:35:35.641Z,3.50
2022-11-24T20:38:05.389Z,3.43
2022-11-24T20:40:35.096Z,3.27
2022-11-24T20:43:04.880Z,3.30
2022-11-24T20:45:39.446Z,2.80
2022-11-24T20:48:09.232Z,3.50
2022-11-24T20:50:39.779Z,3.43
2022-11-24T20:53:09.468Z,3.40
2022-11-24T20:55:39.176Z,2.80
2022-11-24T20:58:08.852Z,3.30
2022-11-24T21:00:41.171Z,3.10
2022-11-24T21:03:10.903Z,3.67
2022-11-24T21:05:40.607Z,3.20
2022-11-24T21:08:10.306Z,3.10
2022-11-24T21:10:40.041Z,3.33
2022-11-24T21:13:09.724Z,3.50
2022-11-24T21:15:42.074Z,3.53
2022-11-24T21:18:11.779Z,3.40
2022-11-24T21:20:41.471Z,2.97
2022-11-24T21:23:11.335Z,3.70
2022-11-24T21:25:41.043Z,3.30
2022-11-24T21:28:10.860Z,3.73
2022-11-24T21:30:43.200Z,3.90
2022-11-24T21:33:12.940Z,3.50
2022-11-24T21:35:42.652Z,3.53
2022-11-24T21:38:12.608Z,2.93
2022-11-24T21:40:46.023Z,4.13
2022-11-24T21:43:19.746Z,3.30
2022-11-24T21:45:52.115Z,3.60
2022-11-24T21:48:21.907Z,3.17
2022-11-24T21:50:51.672Z,3.30
2022-11-24T21:53:21.402Z,3.80
2022-11-24T21:55:57.466Z,3.03
2022-11-24T21:58:27.444Z,3.50
2022-11-24T22:01:04.773Z,2.77
2022-11-24T22:03:34.638Z,3.33
2022-11-24T22:06:04.780Z,3.87
2022-11-24T22:08:34.949Z,3.80
2022-11-24T22:11:06.043Z,3.27
2022-11-24T22:13:36.067Z,3.00
2022-11-24T22:16:10.606Z,3.23
2022-11-24T22:18:41.955Z,3.30
2022-11-24T22:21:14.959Z,3.07
2022-11-24T22:23:45.102Z,2.90
2022-11-24T22:26:16.506Z,3.30
2022-11-24T22:28:47.334Z,3.77
2022-11-24T22:31:21.361Z,3.47
2022-11-24T22:33:52.204Z,3.00
2022-11-24T22:36:24.444Z,4.20
2022-11-24T22:38:56.771Z,2.87
2022-11-24T22:41:26.933Z,2.93
2022-11-24T22:43:56.679Z,3.13
2022-11-24T22:46:30.968Z,3.77
2022-11-24T22:49:02.008Z,3.00
2022-11-24T22:51:34.144Z,3.50
2022-11-24T22:54:05.817Z,3.27
2022-11-24T22:56:35.993Z,3.80
2022-11-24T22:59:06.256Z,3.30
2022-11-24T23:01:38.576Z,3.53
2022-11-24T23:04:08.340Z,3.33
2022-11-24T23:06:38.202Z,3.47
2022-11-24T23:09:08.824Z,3.20
2022-11-24T23:11:40.699Z,2.90
2022-11-24T23:14:14.499Z,3.40
2022-11-24T23:16:46.843Z,3.33
2022-11-24T23:19:16.575Z,2.83
2022-11-24T23:21:46.295Z,3.00
2022-11-24T23:24:15.961Z,2.90
2022-11-24T23:26:45.676Z,3.00
2022-11-24T23:29:15.593Z,2.90
2022-11-24T23:31:47.984Z,2.83
2022-11-24T23:34:17.699Z,2.70
2022-11-24T23:36:47.414Z,3.40
2022-11-24T23:39:17.283Z,3.30
2022-11-24T23:41:46.987Z,3.00
2022-11-24T23:44:16.709Z,2.87
2022-11-24T23:46:49.049Z,3.27
2022-11-24T23:49:18.755Z,2.67
2022-11-24T23:51:48.478Z,3.10
2022-11-24T23:54:18.167Z,3.30
2022-11-24T23:56:47.860Z,2.90
2022-11-24T23:59:18.990Z,3.10
